Time;durP1;ratioP1;P1;durP2;ratioP2;P2;SDS_P1;SDS_P2;PMS_P1;PMS_P2;Temp;Humidity;BMP_temperature;BMP_pressure;BME280_temperature;BME280_humidity;BME280_pressure;Samples;Min_cycle;Max_cycle;Signal;HPM_P1;HPM_P2
2023/01/22 00:01:59;;;;;;;14.52;8.38;;;;;;;;;;5102323;28;20479;-72
2023/01/22 00:04:25;;;;;;;15.20;8.35;;;;;;;;;;5104700;28;20569;-72
2023/01/22 00:06:51;;;;;;;13.38;8.05;;;;;;;;;;5102399;27;20044;-72
2023/01/22 00:09:17;;;;;;;11.93;7.65;;;;;;;;;;5103080;27;20050;-71
2023/01/22 00:11:43;;;;;;;13.35;8.75;;;;;;;;;;5104754;28;20102;-71
2023/01/22 00:14:10;;;;;;;15.35;7.93;;;;;;;;;;5104161;27;20045;-72
2023/01/22 00:16:38;;;;;;;12.85;7.80;;;;;;;;;;5103707;28;20050;-72
2023/01/22 00:19:04;;;;;;;14.68;8.45;;;;;;;;;;5104340;27;20445;-72
2023/01/22 00:21:30;;;;;;;13.68;8.95;;;;;;;;;;5102659;28;20403;-71
2023/01/22 00:23:56;;;;;;;15.00;8.15;;;;;;;;;;5104045;28;20462;-72
2023/01/22 00:26:22;;;;;;;13.35;8.63;;;;;;;;;;5104232;28;20051;-72
2023/01/22 00:28:49;;;;;;;15.55;7.63;;;;;;;;;;5101524;28;20550;-72
2023/01/22 00:31:15;;;;;;;15.02;7.43;;;;;;;;;;5102374;27;20048;-72
2023/01/22 00:33:42;;;;;;;12.57;8.02;;;;;;;;;;5102370;28;20073;-71
2023/01/22 00:36:10;;;;;;;11.23;7.22;;;;;;;;;;5100889;28;20383;-72
2023/01/22 00:38:36;;;;;;;13.13;7.30;;;;;;;;;;5099534;28;20514;-72
2023/01/22 00:41:05;;;;;;;11.32;7.18;;;;;;;;;;5103103;28;20039;-71
2023/01/22 00:43:32;;;;;;;16.02;7.45;;;;;;;;;;5102596;28;20411;-72
2023/01/22 00:45:58;;;;;;;10.70;6.50;;;;;;;;;;5104962;28;20039;-72
2023/01/22 00:48:24;;;;;;;14.93;6.90;;;;;;;;;;5101090;28;20448;-71
2023/01/22 00:50:51;;;;;;;13.02;7.38;;;;;;;;;;5099358;28;20479;-72
2023/01/22 00:53:17;;;;;;;16.38;7.00;;;;;;;;;;5100653;28;20054;-72
2023/01/22 00:55:51;;;;;;;11.90;7.22;;;;;;;;;;5101360;28;20055;-71
2023/01/22 00:58:17;;;;;;;11.93;7.18;;;;;;;;;;5102613;28;20555;-71
2023/01/22 01:00:43;;;;;;;12.80;8.00;;;;;;;;;;5091759;28;20135;-71
2023/01/22 01:05:54;;;;;;;13.32;8.07;;;;;;;;;;5098512;28;20047;-72
2023/01/22 01:08:21;;;;;;;10.48;6.88;;;;;;;;;;5100130;28;20049;-72
2023/01/22 01:10:47;;;;;;;13.98;8.10;;;;;;;;;;5092083;28;20044;-72
2023/01/22 01:13:13;;;;;;;12.80;7.30;;;;;;;;;;5101791;28;20063;-72
2023/01/22 01:15:40;;;;;;;13.15;7.97;;;;;;;;;;5099132;28;20360;-72
2023/01/22 01:18:11;;;;;;;13.65;7.97;;;;;;;;;;5088721;28;20044;-72
2023/01/22 01:20:38;;;;;;;16.58;7.63;;;;;;;;;;5100936;28;20039;-72
2023/01/22 01:23:04;;;;;;;13.65;7.65;;;;;;;;;;5099115;28;20051;-72
2023/01/22 01:25:30;;;;;;;14.98;7.65;;;;;;;;;;5096955;28;20406;-72
2023/01/22 01:27:56;;;;;;;15.02;7.95;;;;;;;;;;5101782;28;20035;-72
2023/01/22 01:30:22;;;;;;;12.82;7.20;;;;;;;;;;5100335;28;20048;-72
2023/01/22 01:32:49;;;;;;;14.27;8.27;;;;;;;;;;5100420;28;20046;-72
2023/01/22 01:35:15;;;;;;;12.75;7.13;;;;;;;;;;5102967;28;20044;-72
2023/01/22 01:37:41;;;;;;;10.77;6.63;;;;;;;;;;5098568;28;20032;-72
2023/01/22 01:40:08;;;;;;;10.85;7.07;;;;;;;;;;5102744;28;20096;-72
2023/01/22 01:42:35;;;;;;;14.55;7.20;;;;;;;;;;5099586;28;20855;-71
2023/01/22 01:45:23;;;;;;;11.13;6.68;;;;;;;;;;5092927;28;20168;-72
2023/01/22 01:47:51;;;;;;;11.15;6.82;;;;;;;;;;5092322;28;20493;-72
2023/01/22 01:50:19;;;;;;;13.10;7.43;;;;;;;;;;5102052;28;20031;-72
2023/01/22 01:52:45;;;;;;;11.48;6.97;;;;;;;;;;5100633;28;20044;-72
2023/01/22 01:55:13;;;;;;;12.20;7.35;;;;;;;;;;5103409;28;20048;-72
2023/01/22 01:57:41;;;;;;;10.88;6.72;;;;;;;;;;5102845;28;20055;-72
2023/01/22 02:00:09;;;;;;;13.93;7.28;;;;;;;;;;5100292;28;20120;-72
2023/01/22 02:02:36;;;;;;;12.35;7.20;;;;;;;;;;5099570;28;20079;-72
2023/01/22 02:05:03;;;;;;;12.23;7.90;;;;;;;;;;5100285;28;20126;-71
2023/01/22 02:07:29;;;;;;;13.77;7.53;;;;;;;;;;5103143;28;20032;-72
2023/01/22 02:09:55;;;;;;;17.30;7.93;;;;;;;;;;5103203;28;20184;-72
2023/01/22 02:12:21;;;;;;;13.77;7.47;;;;;;;;;;5103556;28;20062;-72
2023/01/22 02:14:49;;;;;;;12.70;6.55;;;;;;;;;;5104067;28;20039;-72
2023/01/22 02:17:18;;;;;;;14.52;7.00;;;;;;;;;;5103892;28;20052;-72
2023/01/22 02:19:45;;;;;;;17.33;7.28;;;;;;;;;;5102570;28;20465;-72
2023/01/22 02:22:12;;;;;;;16.27;7.65;;;;;;;;;;5102594;28;20407;-72
2023/01/22 02:24:38;;;;;;;13.70;6.60;;;;;;;;;;5104241;28;21079;-71
2023/01/22 02:27:05;;;;;;;15.43;7.43;;;;;;;;;;5103400;28;20032;-72
2023/01/22 02:29:31;;;;;;;14.60;7.15;;;;;;;;;;5102525;28;20036;-72
2023/01/22 02:31:57;;;;;;;12.88;6.28;;;;;;;;;;5096020;28;20096;-72
2023/01/22 02:34:23;;;;;;;10.75;6.40;;;;;;;;;;5098338;28;20047;-72
2023/01/22 02:36:50;;;;;;;12.65;6.22;;;;;;;;;;5103760;28;20252;-71
2023/01/22 02:39:16;;;;;;;18.30;6.63;;;;;;;;;;5096752;27;20376;-72
2023/01/22 02:41:42;;;;;;;13.10;6.13;;;;;;;;;;5101955;27;20046;-71
2023/01/22 02:44:09;;;;;;;13.32;5.90;;;;;;;;;;5092747;28;20478;-71
2023/01/22 02:46:35;;;;;;;15.00;6.82;;;;;;;;;;5103464;27;20348;-72
2023/01/22 02:49:01;;;;;;;13.80;6.32;;;;;;;;;;5103883;27;20130;-72
2023/01/22 02:51:27;;;;;;;9.88;5.85;;;;;;;;;;5102254;28;20403;-72
2023/01/22 02:53:53;;;;;;;13.13;5.95;;;;;;;;;;5094985;28;20040;-71
2023/01/22 02:56:20;;;;;;;11.38;5.88;;;;;;;;;;5101271;28;20050;-72
2023/01/22 02:58:46;;;;;;;10.35;5.72;;;;;;;;;;5102625;28;20043;-72
2023/01/22 03:01:19;;;;;;;13.85;5.95;;;;;;;;;;5103724;28;20043;-72
2023/01/22 03:03:47;;;;;;;10.35;5.32;;;;;;;;;;5091087;28;20055;-72
2023/01/22 03:06:14;;;;;;;11.07;4.90;;;;;;;;;;5092848;28;20047;-72
2023/01/22 03:08:42;;;;;;;11.10;5.25;;;;;;;;;;5095225;28;20055;-72
2023/01/22 03:11:09;;;;;;;11.10;4.93;;;;;;;;;;5103220;28;20126;-72
2023/01/22 03:21:51;;;;;;;8.35;3.65;;;;;;;;;;5092744;28;20044;-72
2023/01/22 03:24:17;;;;;;;9.18;4.20;;;;;;;;;;5103234;28;20376;-72
2023/01/22 03:26:43;;;;;;;7.88;3.78;;;;;;;;;;5093403;28;20122;-72
2023/01/22 03:29:09;;;;;;;9.00;4.07;;;;;;;;;;5104077;28;20419;-72
2023/01/22 03:31:35;;;;;;;11.65;4.28;;;;;;;;;;5104717;28;20416;-72
2023/01/22 03:34:01;;;;;;;10.45;3.63;;;;;;;;;;5105767;28;20114;-72
2023/01/22 03:36:27;;;;;;;8.82;3.65;;;;;;;;;;5104782;28;20096;-72
2023/01/22 03:38:53;;;;;;;6.97;3.38;;;;;;;;;;5104682;28;20068;-72
2023/01/22 03:41:20;;;;;;;6.20;3.00;;;;;;;;;;5103277;28;20131;-72
2023/01/22 03:43:46;;;;;;;8.40;2.80;;;;;;;;;;5104014;28;20048;-72
2023/01/22 03:46:13;;;;;;;8.73;2.95;;;;;;;;;;5093676;28;20040;-72
2023/01/22 03:48:39;;;;;;;8.90;3.30;;;;;;;;;;5105768;28;20042;-72
2023/01/22 03:51:08;;;;;;;8.35;3.10;;;;;;;;;;5105244;27;20412;-72
2023/01/22 03:53:34;;;;;;;11.50;3.58;;;;;;;;;;5091458;27;20631;-72
2023/01/22 03:56:02;;;;;;;7.03;3.30;;;;;;;;;;5104528;28;20482;-72
2023/01/22 03:58:29;;;;;;;7.07;3.00;;;;;;;;;;5094102;28;20044;-72
2023/01/22 04:00:57;;;;;;;6.30;3.00;;;;;;;;;;5099849;28;20066;-72
2023/01/22 04:03:25;;;;;;;10.30;2.85;;;;;;;;;;5100023;28;20036;-72
2023/01/22 04:05:51;;;;;;;9.25;3.25;;;;;;;;;;5100933;28;20043;-72
2023/01/22 04:08:17;;;;;;;6.30;3.28;;;;;;;;;;5091927;28;20066;-72
2023/01/22 04:10:43;;;;;;;7.25;3.53;;;;;;;;;;5099705;28;20131;-72
2023/01/22 04:13:09;;;;;;;9.73;3.97;;;;;;;;;;5100957;28;20043;-72
2023/01/22 04:15:36;;;;;;;9.98;4.10;;;;;;;;;;5096168;28;20043;-72
2023/01/22 04:18:02;;;;;;;11.93;4.32;;;;;;;;;;5100203;28;20382;-72
2023/01/22 04:20:28;;;;;;;13.48;5.20;;;;;;;;;;5100133;28;20089;-72
2023/01/22 04:22:54;;;;;;;12.90;5.57;;;;;;;;;;5102008;27;20436;-72
2023/01/22 04:25:20;;;;;;;10.45;4.35;;;;;;;;;;5103275;28;20065;-72
2023/01/22 04:27:47;;;;;;;14.43;6.00;;;;;;;;;;5100054;28;20047;-72
2023/01/22 04:30:13;;;;;;;7.38;4.20;;;;;;;;;;5102458;28;20043;-72
2023/01/22 04:32:39;;;;;;;9.55;4.78;;;;;;;;;;5101677;28;20404;-72
2023/01/22 04:35:05;;;;;;;10.55;5.35;;;;;;;;;;5100710;28;20035;-72
2023/01/22 04:37:32;;;;;;;14.13;5.47;;;;;;;;;;5101645;28;20047;-72
2023/01/22 04:39:58;;;;;;;11.07;4.55;;;;;;;;;;5090346;28;20085;-72
2023/01/22 04:42:25;;;;;;;12.35;4.65;;;;;;;;;;5100650;28;20050;-72
2023/01/22 04:44:52;;;;;;;8.48;3.75;;;;;;;;;;5100920;28;20048;-72
2023/01/22 04:47:18;;;;;;;10.55;4.68;;;;;;;;;;5082135;28;20502;-72
2023/01/22 04:49:44;;;;;;;10.55;4.47;;;;;;;;;;5101413;28;20043;-72
2023/01/22 04:52:10;;;;;;;10.38;4.18;;;;;;;;;;5101268;28;20047;-72
2023/01/22 04:54:36;;;;;;;7.30;4.13;;;;;;;;;;5082433;28;20046;-72
2023/01/22 04:57:02;;;;;;;8.93;4.47;;;;;;;;;;5100674;28;20081;-72
2023/01/22 04:59:28;;;;;;;7.68;4.10;;;;;;;;;;5100658;28;20050;-72
2023/01/22 05:01:55;;;;;;;14.98;4.30;;;;;;;;;;5100358;28;20365;-73
2023/01/22 05:04:22;;;;;;;9.02;4.15;;;;;;;;;;5080233;28;20044;-72
2023/01/22 05:06:48;;;;;;;11.77;4.60;;;;;;;;;;5081559;28;20059;-73
2023/01/22 05:09:15;;;;;;;11.80;4.30;;;;;;;;;;5099515;28;20126;-73
2023/01/22 05:11:41;;;;;;;10.27;5.40;;;;;;;;;;5102891;28;20368;-72
2023/01/22 05:14:07;;;;;;;7.82;3.92;;;;;;;;;;5098506;28;20299;-72
2023/01/22 05:16:33;;;;;;;8.10;3.97;;;;;;;;;;5080533;28;20085;-73
2023/01/22 05:18:59;;;;;;;8.30;4.20;;;;;;;;;;5079453;28;20350;-73
2023/01/22 05:21:25;;;;;;;12.02;5.22;;;;;;;;;;5099671;28;20452;-73
2023/01/22 05:23:52;;;;;;;8.93;4.28;;;;;;;;;;5099212;28;20110;-73
2023/01/22 05:26:18;;;;;;;7.85;4.18;;;;;;;;;;5101016;28;20179;-73
2023/01/22 05:28:44;;;;;;;9.30;4.43;;;;;;;;;;5103463;28;20084;-73
2023/01/22 05:31:10;;;;;;;9.55;4.25;;;;;;;;;;5102120;28;20042;-73
2023/01/22 05:33:38;;;;;;;8.02;4.68;;;;;;;;;;5085544;28;20047;-73
2023/01/22 05:36:04;;;;;;;9.15;4.47;;;;;;;;;;5101962;28;20391;-73
2023/01/22 05:38:30;;;;;;;11.98;4.60;;;;;;;;;;5085376;28;20403;-73
2023/01/22 05:40:56;;;;;;;12.82;4.80;;;;;;;;;;5103779;28;20092;-72
2023/01/22 05:43:23;;;;;;;11.32;4.43;;;;;;;;;;5107597;28;20051;-73
2023/01/22 05:45:49;;;;;;;8.88;4.03;;;;;;;;;;5106464;28;20457;-73
2023/01/22 05:48:15;;;;;;;9.35;4.07;;;;;;;;;;5107037;28;20623;-73
2023/01/22 05:50:41;;;;;;;10.13;4.90;;;;;;;;;;5106531;28;20032;-73
2023/01/22 05:53:08;;;;;;;8.75;4.75;;;;;;;;;;5094945;28;20085;-73
2023/01/22 05:55:34;;;;;;;8.10;4.10;;;;;;;;;;5103223;28;20059;-73
2023/01/22 05:58:01;;;;;;;8.82;4.28;;;;;;;;;;5106251;28;20047;-73
2023/01/22 06:00:27;;;;;;;13.45;4.88;;;;;;;;;;5092494;28;20123;-73
2023/01/22 06:02:56;;;;;;;9.35;5.00;;;;;;;;;;5103546;28;20043;-73
2023/01/22 06:05:22;;;;;;;9.05;4.97;;;;;;;;;;5102469;28;20043;-73
2023/01/22 06:07:48;;;;;;;9.02;4.38;;;;;;;;;;5101081;28;20035;-73
2023/01/22 06:10:15;;;;;;;10.70;4.55;;;;;;;;;;5094551;28;20143;-73
2023/01/22 06:12:41;;;;;;;10.95;5.55;;;;;;;;;;5103313;28;20054;-73
2023/01/22 06:15:08;;;;;;;13.52;5.10;;;;;;;;;;5096005;28;20036;-73
2023/01/22 06:17:34;;;;;;;7.50;3.90;;;;;;;;;;5098022;28;20075;-73
2023/01/22 06:20:00;;;;;;;10.35;3.75;;;;;;;;;;5091759;28;20055;-73
2023/01/22 06:22:26;;;;;;;7.10;3.70;;;;;;;;;;5103089;27;20039;-73
2023/01/22 06:24:52;;;;;;;7.97;3.95;;;;;;;;;;5099114;27;20132;-73
2023/01/22 06:27:18;;;;;;;10.48;4.40;;;;;;;;;;5095419;28;20050;-73
2023/01/22 06:29:45;;;;;;;7.35;3.88;;;;;;;;;;5101799;28;20043;-73
2023/01/22 06:32:11;;;;;;;10.90;4.15;;;;;;;;;;5103975;28;20391;-73
2023/01/22 06:34:37;;;;;;;9.90;4.60;;;;;;;;;;5103568;28;20070;-73
2023/01/22 06:37:03;;;;;;;10.48;3.90;;;;;;;;;;5097281;28;20035;-72
2023/01/22 06:39:29;;;;;;;9.80;3.75;;;;;;;;;;5103548;28;20046;-72
2023/01/22 06:41:56;;;;;;;6.60;3.92;;;;;;;;;;5102958;28;20494;-73
2023/01/22 06:44:22;;;;;;;17.58;4.60;;;;;;;;;;5101366;28;20135;-74
2023/01/22 06:46:48;;;;;;;7.25;4.03;;;;;;;;;;5095890;28;20044;-73
2023/01/22 06:49:14;;;;;;;7.25;4.18;;;;;;;;;;5094103;28;20043;-73
2023/01/22 06:51:41;;;;;;;11.63;3.88;;;;;;;;;;5105693;28;20057;-76
2023/01/22 06:54:07;;;;;;;7.80;3.50;;;;;;;;;;5104722;28;20047;-73
2023/01/22 06:56:34;;;;;;;11.98;4.53;;;;;;;;;;5098704;28;20043;-72
2023/01/22 06:59:00;;;;;;;9.20;3.80;;;;;;;;;;5104102;28;20495;-73
2023/01/22 07:01:26;;;;;;;9.85;4.05;;;;;;;;;;5100089;28;20039;-72
2023/01/22 07:03:52;;;;;;;7.05;4.05;;;;;;;;;;5095590;28;20040;-72
2023/01/22 07:06:19;;;;;;;8.70;3.90;;;;;;;;;;5107001;28;20040;-73
2023/01/22 07:08:45;;;;;;;11.80;4.03;;;;;;;;;;5102929;28;20096;-73
2023/01/22 07:11:13;;;;;;;9.93;3.83;;;;;;;;;;5101850;28;20035;-72
2023/01/22 07:13:39;;;;;;;10.55;4.50;;;;;;;;;;5104589;28;20066;-73
2023/01/22 07:16:05;;;;;;;12.18;4.13;;;;;;;;;;5093411;28;20058;-73
2023/01/22 07:18:31;;;;;;;10.95;3.90;;;;;;;;;;5102282;28;20051;-73
2023/01/22 07:21:01;;;;;;;7.53;4.05;;;;;;;;;;5104072;28;20043;-73
2023/01/22 07:23:28;;;;;;;8.18;4.82;;;;;;;;;;5102560;28;20031;-73
2023/01/22 07:25:54;;;;;;;9.75;4.60;;;;;;;;;;5096083;28;20051;-73
2023/01/22 07:28:21;;;;;;;12.45;4.30;;;;;;;;;;5100453;28;20036;-73
2023/01/22 07:30:47;;;;;;;10.82;3.88;;;;;;;;;;5106547;28;20055;-72
2023/01/22 07:33:14;;;;;;;12.57;5.03;;;;;;;;;;5096911;28;20056;-72
2023/01/22 07:35:40;;;;;;;9.32;4.50;;;;;;;;;;5107349;28;20044;-73
2023/01/22 07:38:07;;;;;;;8.15;3.60;;;;;;;;;;5103498;28;20051;-73
2023/01/22 07:40:33;;;;;;;9.20;3.55;;;;;;;;;;5095376;28;20062;-72
2023/01/22 07:43:00;;;;;;;11.27;3.92;;;;;;;;;;5093559;28;20418;-72
2023/01/22 07:45:26;;;;;;;10.65;4.57;;;;;;;;;;5104129;28;20123;-73
2023/01/22 07:47:54;;;;;;;7.93;3.92;;;;;;;;;;5104604;28;20306;-73
2023/01/22 07:50:21;;;;;;;8.77;3.80;;;;;;;;;;5104568;28;20049;-72
2023/01/22 07:52:47;;;;;;;11.60;4.35;;;;;;;;;;5105054;28;20188;-73
2023/01/22 07:55:13;;;;;;;18.90;4.28;;;;;;;;;;5103820;28;20055;-73
2023/01/22 07:57:40;;;;;;;11.63;4.00;;;;;;;;;;5104000;28;20085;-72
2023/01/22 08:00:09;;;;;;;10.13;4.10;;;;;;;;;;5102349;28;20050;-73
2023/01/22 08:02:35;;;;;;;9.73;4.43;;;;;;;;;;5102672;27;20035;-73
2023/01/22 08:05:01;;;;;;;11.07;4.10;;;;;;;;;;5103963;27;20376;-72
2023/01/22 08:07:29;;;;;;;8.52;4.07;;;;;;;;;;5101570;27;20039;-72
2023/01/22 08:09:55;;;;;;;11.07;4.53;;;;;;;;;;5103584;28;20048;-72
2023/01/22 08:12:21;;;;;;;10.95;5.40;;;;;;;;;;5088111;28;20462;-72
2023/01/22 08:14:48;;;;;;;6.55;3.70;;;;;;;;;;5095457;28;20431;-73
2023/01/22 08:17:14;;;;;;;9.10;4.60;;;;;;;;;;5098441;28;20499;-75
2023/01/22 08:19:40;;;;;;;10.63;5.97;;;;;;;;;;5090458;28;20070;-71
2023/01/22 08:22:06;;;;;;;12.27;4.03;;;;;;;;;;5099011;28;20043;-74
2023/01/22 08:24:34;;;;;;;7.97;4.13;;;;;;;;;;5099573;28;20058;-72
2023/01/22 08:27:00;;;;;;;8.20;3.58;;;;;;;;;;5098994;28;20036;-72
2023/01/22 08:29:26;;;;;;;11.80;4.35;;;;;;;;;;5102105;28;20655;-71
2023/01/22 08:31:53;;;;;;;9.27;4.55;;;;;;;;;;5103217;28;20118;-73
2023/01/22 08:34:20;;;;;;;9.75;4.18;;;;;;;;;;5095327;28;20056;-73
2023/01/22 08:36:46;;;;;;;9.45;4.43;;;;;;;;;;5099806;28;20795;-73
2023/01/22 08:39:12;;;;;;;13.07;4.13;;;;;;;;;;5094437;28;20061;-72
2023/01/22 08:41:39;;;;;;;10.20;5.32;;;;;;;;;;5100857;28;20408;-72
2023/01/22 08:44:05;;;;;;;11.07;4.47;;;;;;;;;;5102655;28;20054;-75
2023/01/22 08:46:33;;;;;;;8.90;3.97;;;;;;;;;;5102175;28;20043;-74
2023/01/22 08:48:59;;;;;;;7.03;3.72;;;;;;;;;;5101401;28;20073;-72
2023/01/22 08:51:26;;;;;;;11.80;4.07;;;;;;;;;;5101872;28;20047;-73
2023/01/22 08:53:52;;;;;;;8.15;4.50;;;;;;;;;;5100047;28;20044;-73
2023/01/22 08:56:18;;;;;;;9.82;4.13;;;;;;;;;;5099340;28;20475;-73
2023/01/22 08:58:47;;;;;;;9.88;4.68;;;;;;;;;;5103984;27;20052;-72
2023/01/22 09:01:15;;;;;;;27.88;19.48;;;;;;;;;;5098549;28;20558;-72
2023/01/22 09:03:42;;;;;;;11.93;4.78;;;;;;;;;;5101570;28;20370;-72
2023/01/22 09:06:09;;;;;;;11.18;4.70;;;;;;;;;;5093435;28;20372;-72
2023/01/22 09:08:35;;;;;;;10.50;4.22;;;;;;;;;;5099388;28;20055;-72
2023/01/22 09:11:03;;;;;;;7.93;4.13;;;;;;;;;;5102443;28;20039;-73
2023/01/22 09:13:29;;;;;;;9.93;4.40;;;;;;;;;;5102672;28;20043;-72
2023/01/22 09:15:56;;;;;;;10.88;4.10;;;;;;;;;;5099890;28;20048;-73
2023/01/22 09:18:22;;;;;;;9.05;4.57;;;;;;;;;;5102000;28;20083;-73
2023/01/22 09:20:50;;;;;;;8.07;4.38;;;;;;;;;;5102294;28;20127;-73
2023/01/22 09:23:16;;;;;;;13.30;5.07;;;;;;;;;;5098073;28;20096;-73
2023/01/22 09:25:42;;;;;;;9.45;4.40;;;;;;;;;;5092102;28;20080;-72
2023/01/22 09:28:11;;;;;;;9.68;4.57;;;;;;;;;;5104585;28;21763;-72
2023/01/22 09:30:40;;;;;;;8.25;4.18;;;;;;;;;;5098512;28;20487;-72
2023/01/22 09:33:06;;;;;;;11.32;5.40;;;;;;;;;;5105331;28;20043;-72
2023/01/22 09:35:32;;;;;;;13.52;5.00;;;;;;;;;;5106703;28;20176;-73
2023/01/22 09:38:00;;;;;;;12.82;5.28;;;;;;;;;;5094737;28;20055;-73
2023/01/22 09:40:27;;;;;;;13.18;5.07;;;;;;;;;;5105995;28;20624;-72
2023/01/22 09:43:07;;;;;;;9.73;5.40;;;;;;;;;;5109688;28;20060;-72
2023/01/22 09:45:37;;;;;;;8.35;5.00;;;;;;;;;;5102070;28;20039;-72
2023/01/22 09:48:06;;;;;;;11.13;5.07;;;;;;;;;;5098290;28;20083;-73
2023/01/22 09:50:34;;;;;;;10.52;5.35;;;;;;;;;;5091434;28;20052;-71
2023/01/22 09:53:05;;;;;;;15.43;4.85;;;;;;;;;;5099975;28;20046;-72
2023/01/22 09:55:35;;;;;;;8.50;4.60;;;;;;;;;;5097058;28;20043;-73
2023/01/22 09:58:04;;;;;;;11.85;5.10;;;;;;;;;;5100959;28;20461;-79
2023/01/22 10:00:43;;;;;;;15.73;5.68;;;;;;;;;;5102394;28;20130;-72
2023/01/22 10:03:18;;;;;;;9.88;4.97;;;;;;;;;;5101743;28;20112;-74
2023/01/22 10:05:48;;;;;;;9.50;5.97;;;;;;;;;;5101017;28;20126;-73
2023/01/22 10:08:19;;;;;;;9.20;4.93;;;;;;;;;;5090878;28;20048;-72
2023/01/22 10:10:45;;;;;;;12.65;5.15;;;;;;;;;;5099048;28;20467;-73
2023/01/22 10:13:12;;;;;;;7.65;5.22;;;;;;;;;;5101463;28;20976;-73
2023/01/22 10:15:38;;;;;;;9.27;5.65;;;;;;;;;;5088791;28;20077;-72
2023/01/22 10:18:12;;;;;;;10.32;5.47;;;;;;;;;;5101365;28;20039;-72
2023/01/22 10:20:38;;;;;;;9.07;5.40;;;;;;;;;;5096618;28;20066;-70
2023/01/22 10:23:13;;;;;;;12.60;6.18;;;;;;;;;;5104817;28;20047;-69
2023/01/22 10:25:40;;;;;;;11.35;5.45;;;;;;;;;;5100967;28;20077;-69
2023/01/22 10:28:06;;;;;;;15.63;6.28;;;;;;;;;;5099692;28;20104;-71
2023/01/22 10:30:34;;;;;;;11.98;5.88;;;;;;;;;;5104328;27;20516;-72
2023/01/22 10:33:03;;;;;;;13.10;6.45;;;;;;;;;;5102494;28;20931;-73
2023/01/22 10:35:30;;;;;;;10.00;5.95;;;;;;;;;;5104583;28;20082;-72
2023/01/22 10:37:57;;;;;;;9.60;5.03;;;;;;;;;;5095801;27;20048;-73
2023/01/22 10:40:25;;;;;;;12.45;5.00;;;;;;;;;;5092178;28;20056;-72
2023/01/22 10:43:00;;;;;;;11.00;5.43;;;;;;;;;;5096307;28;20044;-72
2023/01/22 10:45:26;;;;;;;8.85;5.40;;;;;;;;;;5093988;28;20080;-72
2023/01/22 10:48:02;;;;;;;12.82;5.85;;;;;;;;;;5104231;27;20399;-72
2023/01/22 10:50:29;;;;;;;9.27;5.47;;;;;;;;;;5100803;28;20058;-73
2023/01/22 10:52:56;;;;;;;9.52;4.85;;;;;;;;;;5104245;28;20040;-73
2023/01/22 10:55:24;;;;;;;12.68;6.28;;;;;;;;;;5103698;28;20195;-73
2023/01/22 10:57:56;;;;;;;9.18;6.07;;;;;;;;;;5095152;28;20049;-76
2023/01/22 11:00:29;;;;;;;11.13;5.40;;;;;;;;;;5098577;28;20043;-75
2023/01/22 11:02:55;;;;;;;11.52;5.15;;;;;;;;;;5105178;28;20039;-73
2023/01/22 11:05:23;;;;;;;11.98;6.07;;;;;;;;;;5104602;28;20051;-72
2023/01/22 11:07:51;;;;;;;9.57;5.60;;;;;;;;;;5103551;28;20054;-72
2023/01/22 11:10:19;;;;;;;10.75;4.95;;;;;;;;;;5101651;28;20086;-72
2023/01/22 11:12:52;;;;;;;7.70;4.57;;;;;;;;;;5101735;28;20047;-72
2023/01/22 11:15:30;;;;;;;11.05;4.90;;;;;;;;;;5107441;27;20052;-72
2023/01/22 11:17:59;;;;;;;14.75;5.68;;;;;;;;;;5096400;28;20052;-73
2023/01/22 11:20:28;;;;;;;10.90;5.80;;;;;;;;;;5105721;27;20055;-72
2023/01/22 11:23:11;;;;;;;11.93;5.20;;;;;;;;;;5103443;28;20439;-72
2023/01/22 11:25:44;;;;;;;11.85;6.32;;;;;;;;;;5105076;27;20439;-74
2023/01/22 11:28:18;;;;;;;12.48;5.45;;;;;;;;;;5096687;28;20483;-78
2023/01/22 11:30:44;;;;;;;;;;;;;;;;;;5083518;28;20047;-72
2023/01/22 11:33:21;;;;;;;8.68;4.55;;;;;;;;;;5094210;28;19923;-75
2023/01/22 11:36:03;;;;;;;8.35;4.75;;;;;;;;;;5097813;28;20058;-73
2023/01/22 11:38:43;;;;;;;10.73;4.78;;;;;;;;;;5102133;28;20036;-73
2023/01/22 11:41:16;;;;;;;9.38;5.35;;;;;;;;;;5095046;28;20046;-73
2023/01/22 11:43:46;;;;;;;9.15;5.38;;;;;;;;;;5100779;28;20469;-72
2023/01/22 11:46:19;;;;;;;10.57;4.88;;;;;;;;;;5101290;28;20071;-77
2023/01/22 11:49:04;;;;;;;9.00;4.90;;;;;;;;;;5098444;28;20035;-77
2023/01/22 11:51:34;;;;;;;8.15;5.43;;;;;;;;;;5099874;28;20047;-73
2023/01/22 11:54:05;;;;;;;9.40;5.68;;;;;;;;;;5102030;28;20043;-74
2023/01/22 11:56:46;;;;;;;13.25;5.88;;;;;;;;;;5102211;28;20046;-73
2023/01/22 11:59:19;;;;;;;11.13;5.53;;;;;;;;;;5100585;28;20047;-73
2023/01/22 12:01:55;;;;;;;10.23;5.40;;;;;;;;;;5101998;28;20063;-73
2023/01/22 12:04:31;;;;;;;9.27;5.90;;;;;;;;;;5102125;28;20051;-73
2023/01/22 12:07:07;;;;;;;9.52;5.32;;;;;;;;;;5102630;28;20046;-72
2023/01/22 12:09:36;;;;;;;12.80;6.60;;;;;;;;;;5100782;28;20039;-73
2023/01/22 12:12:18;;;;;;;10.10;5.35;;;;;;;;;;5105254;28;20069;-73
2023/01/22 12:14:51;;;;;;;9.02;5.63;;;;;;;;;;5084936;28;20500;-74
2023/01/22 12:17:30;;;;;;;8.93;5.28;;;;;;;;;;5107528;28;20088;-74
2023/01/22 12:19:57;;;;;;;9.00;6.18;;;;;;;;;;5097622;28;20455;-73
2023/01/22 12:22:27;;;;;;;11.05;5.65;;;;;;;;;;5103225;28;20047;-72
2023/01/22 12:24:58;;;;;;;14.63;7.05;;;;;;;;;;5095701;28;20055;-72
2023/01/22 12:27:26;;;;;;;9.88;5.45;;;;;;;;;;5106686;28;20108;-73
2023/01/22 12:29:58;;;;;;;8.48;5.22;;;;;;;;;;5102574;27;20073;-74
2023/01/22 12:32:25;;;;;;;9.50;5.15;;;;;;;;;;5106114;28;20047;-74
2023/01/22 12:34:55;;;;;;;11.15;5.15;;;;;;;;;;5103283;28;20039;-81
2023/01/22 12:37:24;;;;;;;9.50;5.38;;;;;;;;;;5104758;28;20481;-76
2023/01/22 12:39:54;;;;;;;12.00;6.15;;;;;;;;;;5095120;28;20043;-82
2023/01/22 12:42:25;;;;;;;9.07;5.35;;;;;;;;;;5078777;28;20075;-72
2023/01/22 12:45:02;;;;;;;13.40;5.78;;;;;;;;;;5093903;28;20075;-76
2023/01/22 12:47:34;;;;;;;12.02;5.97;;;;;;;;;;5098412;27;20044;-73
2023/01/22 12:50:00;;;;;;;11.02;6.10;;;;;;;;;;5096771;28;20108;-73
2023/01/22 12:52:28;;;;;;;12.20;6.18;;;;;;;;;;5103076;27;20047;-72
2023/01/22 12:54:54;;;;;;;9.13;5.85;;;;;;;;;;5103160;28;20077;-73
2023/01/22 12:57:21;;;;;;;8.85;5.57;;;;;;;;;;5094494;28;20075;-73
2023/01/22 12:59:49;;;;;;;11.95;7.35;;;;;;;;;;5095629;28;20101;-73
2023/01/22 13:02:21;;;;;;;8.77;5.22;;;;;;;;;;5093672;28;21427;-73
2023/01/22 13:04:47;;;;;;;10.93;5.28;;;;;;;;;;5091286;28;20127;-73
2023/01/22 13:07:20;;;;;;;8.68;5.20;;;;;;;;;;5101818;28;20047;-73
2023/01/22 13:09:46;;;;;;;11.27;5.78;;;;;;;;;;5080736;28;20036;-81
2023/01/22 13:12:26;;;;;;;12.27;5.18;;;;;;;;;;5090512;28;20048;-72
2023/01/22 13:14:53;;;;;;;13.63;5.07;;;;;;;;;;5087553;28;20114;-73
2023/01/22 13:17:21;;;;;;;8.88;4.47;;;;;;;;;;5100448;28;20054;-73
2023/01/22 13:19:49;;;;;;;9.23;4.50;;;;;;;;;;5099763;28;20074;-73
2023/01/22 13:22:34;;;;;;;9.23;5.07;;;;;;;;;;5090563;28;20123;-73
2023/01/22 13:25:00;;;;;;;10.43;4.57;;;;;;;;;;5094814;28;20110;-73
2023/01/22 13:27:31;;;;;;;9.35;5.07;;;;;;;;;;5092738;28;20051;-72
2023/01/22 13:30:06;;;;;;;12.68;5.47;;;;;;;;;;5090449;28;20044;-73
2023/01/22 13:32:33;;;;;;;12.77;5.20;;;;;;;;;;5100693;28;20078;-72
2023/01/22 13:35:03;;;;;;;12.10;4.55;;;;;;;;;;5091088;28;20067;-72
2023/01/22 13:37:29;;;;;;;15.35;5.38;;;;;;;;;;5095594;28;20052;-72
2023/01/22 13:39:56;;;;;;;11.45;5.25;;;;;;;;;;5094794;28;20048;-71
2023/01/22 13:42:23;;;;;;;9.68;4.55;;;;;;;;;;5100804;28;20113;-77
2023/01/22 13:44:51;;;;;;;11.85;5.03;;;;;;;;;;5101827;28;20102;-76
2023/01/22 13:47:24;;;;;;;9.43;4.70;;;;;;;;;;5101226;28;20048;-72
2023/01/22 13:49:50;;;;;;;12.85;5.50;;;;;;;;;;5100488;28;20483;-69
2023/01/22 13:52:18;;;;;;;9.23;5.10;;;;;;;;;;5096592;28;20114;-71
2023/01/22 13:54:48;;;;;;;11.82;4.68;;;;;;;;;;5089303;28;20442;-71
2023/01/22 13:57:15;;;;;;;10.27;4.25;;;;;;;;;;5098011;28;20080;-70
2023/01/22 13:59:51;;;;;;;9.52;4.63;;;;;;;;;;5103776;28;20040;-70
2023/01/22 14:02:18;;;;;;;11.20;5.05;;;;;;;;;;5104098;28;20444;-71
2023/01/22 14:04:45;;;;;;;13.27;4.70;;;;;;;;;;5102450;28;20238;-70
2023/01/22 14:07:21;;;;;;;11.00;5.15;;;;;;;;;;5105560;28;20031;-71
2023/01/22 14:09:48;;;;;;;12.52;4.70;;;;;;;;;;5105480;28;20043;-71
2023/01/22 14:12:16;;;;;;;9.18;4.55;;;;;;;;;;5096072;28;20042;-70
2023/01/22 14:14:42;;;;;;;9.50;4.68;;;;;;;;;;5107403;28;20062;-70
2023/01/22 14:17:19;;;;;;;9.57;5.88;;;;;;;;;;5105697;27;20039;-71
2023/01/22 14:19:45;;;;;;;12.70;5.20;;;;;;;;;;5103222;27;20367;-70
2023/01/22 14:22:11;;;;;;;12.07;4.68;;;;;;;;;;5098332;28;20039;-70
2023/01/22 14:24:37;;;;;;;9.73;4.95;;;;;;;;;;5098850;28;20040;-71
2023/01/22 14:27:03;;;;;;;12.52;5.00;;;;;;;;;;5096087;28;20047;-71
2023/01/22 14:29:30;;;;;;;9.77;4.97;;;;;;;;;;5105009;28;20039;-70
2023/01/22 14:31:56;;;;;;;10.60;5.88;;;;;;;;;;5096170;28;20043;-70
2023/01/22 14:34:22;;;;;;;10.18;5.55;;;;;;;;;;5101919;28;20054;-71
2023/01/22 14:36:48;;;;;;;22.02;6.07;;;;;;;;;;5103766;28;20119;-71
2023/01/22 14:39:14;;;;;;;12.68;6.20;;;;;;;;;;5089367;28;20044;-71
2023/01/22 14:41:41;;;;;;;8.63;6.03;;;;;;;;;;5105455;28;20112;-70
2023/01/22 14:44:07;;;;;;;11.57;5.78;;;;;;;;;;5093246;28;20070;-71
2023/01/22 14:46:35;;;;;;;12.82;5.72;;;;;;;;;;5103271;27;20374;-71
2023/01/22 14:49:03;;;;;;;12.10;6.30;;;;;;;;;;5093515;28;20036;-71
2023/01/22 14:51:29;;;;;;;10.65;5.57;;;;;;;;;;5104727;28;20226;-70